Terminal Aerodrome Forecast
Issued by NWS

Home | Current Version | Previous Version | Text Only | Print | Product List | Glossary On
Versions: 1 2 3 4 5 6 7 8 9 10 11 12 13 14 15 16 17 18 19 20 21 22 23 24 25 26 27 28
000
FTAK31 PAJK 192328
TAFASI
TAF
PASI 192328Z 2000/2024 20009KT P6SM FEW020 BKN040
      TEMPO 2004/2008 5SM -RA BKN025 OVC040
     FM200800 14009KT 6SM -RA BR BKN025 OVC040
     FM201300 14021G29KT 4SM RA BR BKN020 OVC030=

USA.gov is the U.S. government's official web portal to all federal, state and local government web resources and services.